createdAt,value
2023-05-22T00:01:46.880Z,12.68
2023-05-22T00:06:52.553Z,5.90
2023-05-22T00:11:56.760Z,6.45
2023-05-22T00:17:00.859Z,7.85
2023-05-22T00:22:06.821Z,10.13
2023-05-22T00:32:14.781Z,19.02
2023-05-22T00:37:20.911Z,11.57
2023-05-22T00:42:25.171Z,9.23
2023-05-22T00:47:29.238Z,10.13
2023-05-22T00:52:36.572Z,8.57
2023-05-22T00:57:42.116Z,12.15
2023-05-22T01:02:46.318Z,9.18
2023-05-22T01:07:51.851Z,11.68
2023-05-22T01:13:02.875Z,8.10
2023-05-22T01:18:19.868Z,8.57
2023-05-22T01:23:57.654Z,10.35
2023-05-22T01:29:16.557Z,10.88
2023-05-22T01:34:23.084Z,7.57
2023-05-22T01:39:29.984Z,9.13
2023-05-22T01:44:33.976Z,10.80
2023-05-22T01:49:39.984Z,6.63
2023-05-22T01:54:52.971Z,6.90
2023-05-22T02:00:07.421Z,8.73
2023-05-22T02:05:24.578Z,11.25
2023-05-22T02:10:30.681Z,7.03
2023-05-22T02:15:39.032Z,9.65
2023-05-22T02:20:50.914Z,10.05
2023-05-22T02:25:55.561Z,8.75
2023-05-22T02:30:59.585Z,8.27
2023-05-22T02:36:05.911Z,8.90
2023-05-22T02:41:10.015Z,9.65
2023-05-22T02:46:14.335Z,16.13
2023-05-22T02:51:19.677Z,11.95
2023-05-22T02:56:24.169Z,8.25
2023-05-22T03:01:30.625Z,8.38
2023-05-22T03:06:37.298Z,7.15
2023-05-22T03:11:41.549Z,11.55
2023-05-22T03:16:45.959Z,9.48
2023-05-22T03:21:51.475Z,11.57
2023-05-22T03:26:55.603Z,11.45
2023-05-22T03:37:16.854Z,13.43
2023-05-22T03:42:20.851Z,10.32
2023-05-22T03:47:24.940Z,17.67
2023-05-22T03:52:30.542Z,12.18
2023-05-22T03:57:34.528Z,9.65
2023-05-22T04:02:40.053Z,10.70
2023-05-22T04:07:45.547Z,10.00
2023-05-22T04:12:49.470Z,10.82
2023-05-22T04:17:54.698Z,11.90
2023-05-22T04:23:00.139Z,8.43
2023-05-22T04:28:04.469Z,11.15
2023-05-22T04:33:11.161Z,5.97
2023-05-22T04:38:18.438Z,7.15
2023-05-22T04:43:23.494Z,7.60
2023-05-22T04:48:28.179Z,7.50
2023-05-22T04:53:33.667Z,6.50
2023-05-22T04:58:38.246Z,12.18
2023-05-22T05:03:43.251Z,13.75
2023-05-22T05:08:49.854Z,13.73
2023-05-22T05:13:54.035Z,18.77
2023-05-22T05:18:57.979Z,13.57
2023-05-22T05:24:03.549Z,8.73
2023-05-22T05:34:20.317Z,10.85
2023-05-22T05:39:48.819Z,8.85
2023-05-22T05:49:58.672Z,7.60
2023-05-22T05:55:07.788Z,10.82
2023-05-22T06:00:13.531Z,12.32
2023-05-22T06:05:20.302Z,15.27
2023-05-22T06:10:29.500Z,13.90
2023-05-22T06:15:48.517Z,9.82
2023-05-22T06:20:53.358Z,43.15
2023-05-22T06:25:59.001Z,11.77
2023-05-22T06:31:03.790Z,8.27
2023-05-22T06:36:09.491Z,15.05
2023-05-22T06:41:14.971Z,15.07
2023-05-22T06:46:19.352Z,22.75
2023-05-22T06:51:29.713Z,24.20
2023-05-22T06:56:43.131Z,22.60
2023-05-22T07:01:52.391Z,17.17
2023-05-22T07:07:06.479Z,17.88
2023-05-22T07:12:12.626Z,27.27
2023-05-22T07:17:17.221Z,28.15
2023-05-22T07:22:22.028Z,11.33
2023-05-22T07:27:27.886Z,19.48
2023-05-22T07:37:39.166Z,24.73
2023-05-22T07:42:44.635Z,15.48
2023-05-22T07:47:50.369Z,11.13
2023-05-22T07:52:54.897Z,23.33
2023-05-22T07:58:04.235Z,14.70
2023-05-22T08:03:13.768Z,10.23
2023-05-22T08:08:18.127Z,8.73
2023-05-22T08:13:23.819Z,11.65
2023-05-22T08:23:36.455Z,15.23
2023-05-22T08:28:44.402Z,13.35
2023-05-22T08:33:48.512Z,10.82
2023-05-22T08:38:52.778Z,13.60
2023-05-22T08:43:58.773Z,13.77
2023-05-22T08:49:03.630Z,15.52
2023-05-22T08:54:08.477Z,20.60
2023-05-22T08:59:14.224Z,12.73
2023-05-22T09:04:18.834Z,12.15
2023-05-22T09:09:22.836Z,14.63
2023-05-22T09:14:28.148Z,13.45
2023-05-22T09:19:32.336Z,12.77
2023-05-22T09:24:40.105Z,9.43
2023-05-22T09:29:53.067Z,9.68
2023-05-22T09:35:04.224Z,12.35
2023-05-22T09:40:11.846Z,14.10
2023-05-22T09:45:22.837Z,7.15
2023-05-22T09:50:26.803Z,14.52
2023-05-22T09:55:32.188Z,7.57
2023-05-22T10:05:49.956Z,13.65
2023-05-22T10:10:54.318Z,10.43
2023-05-22T10:16:04.256Z,11.00
2023-05-22T10:21:08.461Z,10.98
2023-05-22T10:26:12.842Z,8.75
2023-05-22T10:31:30.205Z,9.30
2023-05-22T10:37:16.916Z,11.93
2023-05-22T10:42:22.421Z,9.20
2023-05-22T10:47:27.985Z,11.57
2023-05-22T10:52:32.203Z,14.23
2023-05-22T10:57:38.373Z,6.85
2023-05-22T11:02:45.691Z,17.55
2023-05-22T11:08:10.810Z,10.38
2023-05-22T11:13:14.818Z,9.10
2023-05-22T11:18:20.259Z,10.32
2023-05-22T11:23:26.709Z,6.97
2023-05-22T11:28:31.971Z,6.80
2023-05-22T11:38:41.891Z,11.38
2023-05-22T11:43:45.888Z,10.63
2023-05-22T11:48:51.264Z,9.02
2023-05-22T11:53:55.627Z,10.90
2023-05-22T11:58:59.649Z,8.98
2023-05-22T12:04:06.060Z,6.63
2023-05-22T12:09:11.017Z,9.85
2023-05-22T12:19:20.913Z,5.43
2023-05-22T12:24:24.920Z,7.20
2023-05-22T12:29:29.178Z,7.70
2023-05-22T12:34:36.194Z,8.85
2023-05-22T12:39:40.163Z,9.23
2023-05-22T12:44:46.786Z,8.37
2023-05-22T12:49:52.367Z,10.90
2023-05-22T12:54:56.428Z,7.07
2023-05-22T13:00:00.433Z,8.80
2023-05-22T13:05:06.744Z,16.07
2023-05-22T13:10:11.108Z,25.25
2023-05-22T13:15:16.148Z,8.05
2023-05-22T13:25:25.499Z,8.93
2023-05-22T13:30:30.151Z,11.90
2023-05-22T13:35:35.556Z,12.93
2023-05-22T13:40:39.565Z,9.48
2023-05-22T13:45:43.637Z,6.63
2023-05-22T13:50:48.981Z,11.03
2023-05-22T13:55:53.049Z,12.30
2023-05-22T14:00:57.525Z,7.67
2023-05-22T14:06:03.362Z,8.00
2023-05-22T14:11:07.416Z,8.02
2023-05-22T14:16:11.363Z,5.60
2023-05-22T14:21:18.836Z,8.80
2023-05-22T14:26:24.271Z,7.38
2023-05-22T14:31:29.451Z,4.93
2023-05-22T14:36:34.922Z,7.20
2023-05-22T14:41:38.873Z,10.80
2023-05-22T14:46:43.274Z,11.57
2023-05-22T14:51:48.837Z,5.27
2023-05-22T14:56:52.797Z,8.15
2023-05-22T15:01:57.125Z,12.80
2023-05-22T15:07:02.813Z,6.00
2023-05-22T15:12:07.291Z,9.10
2023-05-22T15:17:11.346Z,11.45
2023-05-22T15:22:19.996Z,6.67
2023-05-22T15:27:24.223Z,12.57
2023-05-22T15:33:05.311Z,13.27
2023-05-22T15:38:26.492Z,8.45
2023-05-22T15:43:30.923Z,7.47
2023-05-22T15:48:34.843Z,7.80
2023-05-22T15:53:40.251Z,5.77
2023-05-22T15:58:44.322Z,9.15
2023-05-22T16:03:48.442Z,6.63
2023-05-22T16:08:53.912Z,5.03
2023-05-22T16:13:57.872Z,9.43
2023-05-22T16:19:01.927Z,6.55
2023-05-22T16:24:07.860Z,7.15
2023-05-22T16:29:11.945Z,6.30
2023-05-22T16:34:16.789Z,6.57
2023-05-22T16:39:22.632Z,8.43
2023-05-22T16:49:30.550Z,10.18
2023-05-22T16:54:36.918Z,7.45
2023-05-22T16:59:41.349Z,9.25
2023-05-22T17:04:46.386Z,7.60
2023-05-22T17:09:51.806Z,8.57
2023-05-22T17:20:01.639Z,12.32
2023-05-22T17:25:08.148Z,13.05
2023-05-22T17:30:12.909Z,18.55
2023-05-22T17:35:17.021Z,10.37
2023-05-22T17:40:32.482Z,14.43
2023-05-22T17:45:49.775Z,9.07
2023-05-22T17:50:54.828Z,7.88
2023-05-22T17:56:00.207Z,9.60
2023-05-22T18:06:08.698Z,13.65
2023-05-22T18:11:14.148Z,15.32
2023-05-22T18:16:19.495Z,10.82
2023-05-22T18:21:23.539Z,12.10
2023-05-22T18:26:28.952Z,12.25
2023-05-22T18:36:36.833Z,12.65
2023-05-22T18:41:42.276Z,10.80
2023-05-22T18:46:46.243Z,11.35
2023-05-22T18:51:50.246Z,19.27
2023-05-22T18:56:55.551Z,18.15
2023-05-22T19:01:59.479Z,18.08
2023-05-22T19:07:03.407Z,15.50
2023-05-22T19:12:09.260Z,15.85
2023-05-22T19:17:13.779Z,15.80
2023-05-22T19:22:18.335Z,15.38
2023-05-22T19:27:23.685Z,20.33
2023-05-22T19:37:31.525Z,18.00
2023-05-22T19:42:39.757Z,16.30
2023-05-22T19:47:43.919Z,17.52
2023-05-22T19:52:48.379Z,15.52
2023-05-22T19:57:53.782Z,17.90
2023-05-22T20:02:57.800Z,22.20
2023-05-22T20:08:01.902Z,17.20
2023-05-22T20:13:10.264Z,19.08
2023-05-22T20:18:14.512Z,23.50
2023-05-22T20:23:18.545Z,18.63
2023-05-22T20:28:23.930Z,29.15
2023-05-22T20:33:28.389Z,20.33
2023-05-22T20:38:34.812Z,23.60
2023-05-22T20:43:43.429Z,22.13
2023-05-22T20:48:48.321Z,21.67
2023-05-22T20:53:53.457Z,22.75
2023-05-22T20:58:59.003Z,22.48
2023-05-22T21:04:03.203Z,24.33
2023-05-22T21:09:07.130Z,25.35
2023-05-22T21:14:12.451Z,19.65
2023-05-22T21:19:16.596Z,19.85
2023-05-22T21:24:21.933Z,19.50
2023-05-22T21:29:27.781Z,22.02
2023-05-22T21:34:31.742Z,20.52
2023-05-22T21:39:35.820Z,21.35
2023-05-22T21:44:41.133Z,24.05
2023-05-22T21:49:45.057Z,25.15
2023-05-22T21:54:49.073Z,25.92
2023-05-22T21:59:54.612Z,17.00
2023-05-22T22:04:58.690Z,21.70
2023-05-22T22:10:02.714Z,17.65
2023-05-22T22:15:09.243Z,16.77
2023-05-22T22:20:13.376Z,23.48
2023-05-22T22:25:17.401Z,18.70
2023-05-22T22:30:22.843Z,17.63
2023-05-22T22:35:26.772Z,17.48
2023-05-22T22:40:30.730Z,15.05
2023-05-22T22:45:36.050Z,17.02
2023-05-22T22:50:40.221Z,18.83
2023-05-22T22:55:44.627Z,21.75
2023-05-22T23:00:50.486Z,16.58
2023-05-22T23:05:54.481Z,18.70
2023-05-22T23:10:58.490Z,14.13
2023-05-22T23:16:03.891Z,15.80
2023-05-22T23:21:07.868Z,16.33
2023-05-22T23:26:11.870Z,16.30
2023-05-22T23:31:17.596Z,15.23
2023-05-22T23:41:25.761Z,13.30
2023-05-22T23:46:31.125Z,17.02
2023-05-22T23:51:35.282Z,13.38
2023-05-22T23:56:39.149Z,13.88
